createdAt,value
2022-12-14T00:01:19.538Z,99263.78
2022-12-14T00:03:47.125Z,99257.13
2022-12-14T00:06:15.513Z,99251.28
2022-12-14T00:08:42.825Z,99260.59
2022-12-14T00:11:10.597Z,99255.69
2022-12-14T00:13:37.995Z,99258.62
2022-12-14T00:16:06.368Z,99246.34
2022-12-14T00:18:33.855Z,99239.16
2022-12-14T00:21:04.849Z,99249.62
2022-12-14T00:23:37.139Z,99252.91
2022-12-14T00:26:09.466Z,99244.31
2022-12-14T00:28:36.925Z,99254.87
2022-12-14T00:31:04.198Z,99252.72
2022-12-14T00:33:31.732Z,99262.81
2022-12-14T00:35:58.947Z,99256.00
2022-12-14T00:38:26.503Z,99259.31
2022-12-14T00:40:54.953Z,99251.31
2022-12-14T00:43:22.549Z,99253.75
2022-12-14T00:45:49.729Z,99241.19
2022-12-14T00:48:17.915Z,99253.47
2022-12-14T00:50:48.694Z,99263.75
2022-12-14T00:53:16.694Z,99262.28
2022-12-14T00:55:49.677Z,99263.19
2022-12-14T00:58:18.378Z,99267.44
2022-12-14T01:00:45.749Z,99268.94
2022-12-14T01:03:13.086Z,99270.44
2022-12-14T01:05:40.750Z,99267.63
2022-12-14T01:08:08.133Z,99266.09
2022-12-14T01:10:38.375Z,99269.87
2022-12-14T01:13:06.433Z,99279.44
2022-12-14T01:15:34.875Z,99273.78
2022-12-14T01:18:02.152Z,99267.72
2022-12-14T01:20:29.617Z,99275.91
2022-12-14T01:22:56.904Z,99269.78
2022-12-14T01:25:24.188Z,99277.50
2022-12-14T01:27:51.728Z,99271.09
2022-12-14T01:30:19.487Z,99276.44
2022-12-14T01:32:46.979Z,99280.12
2022-12-14T01:35:15.240Z,99269.47
2022-12-14T01:37:42.523Z,99260.97
2022-12-14T01:40:09.752Z,99264.69
2022-12-14T01:42:37.356Z,99258.47
2022-12-14T01:45:04.923Z,99249.84
2022-12-14T01:47:42.232Z,99250.53
2022-12-14T01:50:11.723Z,99256.22
2022-12-14T01:52:40.335Z,99242.28
2022-12-14T01:55:23.281Z,99250.25
2022-12-14T01:58:00.140Z,99252.22
2022-12-14T02:00:27.455Z,99248.72
2022-12-14T02:03:08.263Z,99241.34
2022-12-14T02:05:36.142Z,99233.72
2022-12-14T02:08:03.703Z,99230.91
2022-12-14T02:10:31.024Z,99237.94
2022-12-14T02:13:06.085Z,99242.12
2022-12-14T02:15:33.869Z,99234.59
2022-12-14T02:18:01.581Z,99231.59
2022-12-14T02:20:29.468Z,99233.66
2022-12-14T02:22:56.838Z,99227.53
2022-12-14T02:25:42.859Z,99232.84
2022-12-14T02:28:36.062Z,99236.09
2022-12-14T02:31:13.263Z,99237.00
2022-12-14T02:33:46.851Z,99233.16
2022-12-14T02:36:13.980Z,99218.44
2022-12-14T02:38:44.458Z,99227.47
2022-12-14T02:41:14.671Z,99225.06
2022-12-14T02:43:48.104Z,99224.19
2022-12-14T02:46:25.849Z,99214.16
2022-12-14T02:49:02.163Z,99205.44
2022-12-14T02:51:49.064Z,99209.22
2022-12-14T02:54:30.049Z,99210.97
2022-12-14T02:57:01.086Z,99206.88
2022-12-14T02:59:28.611Z,99203.22
2022-12-14T03:01:55.906Z,99197.84
2022-12-14T03:04:23.884Z,99205.84
2022-12-14T03:06:52.739Z,99206.50
2022-12-14T03:09:19.979Z,99200.03
2022-12-14T03:11:47.106Z,99194.75
2022-12-14T03:14:27.663Z,99193.75
2022-12-14T03:16:54.975Z,99181.38
2022-12-14T03:19:48.912Z,99192.31
2022-12-14T03:22:17.827Z,99201.63
2022-12-14T03:24:50.065Z,99199.78
2022-12-14T03:27:21.388Z,99197.25
2022-12-14T03:29:50.186Z,99188.41
2022-12-14T03:32:19.077Z,99192.81
2022-12-14T03:34:48.833Z,99182.44
2022-12-14T03:37:17.646Z,99184.97
2022-12-14T03:39:44.824Z,99187.97
2022-12-14T03:42:18.276Z,99179.78
2022-12-14T03:44:50.059Z,99176.03
2022-12-14T03:47:36.152Z,99182.81
2022-12-14T03:50:06.729Z,99185.66
2022-12-14T03:52:36.242Z,99182.16
2022-12-14T03:55:09.468Z,99179.44
2022-12-14T03:57:43.401Z,99173.16
2022-12-14T04:00:11.987Z,99167.63
2022-12-14T04:02:46.731Z,99154.56
2022-12-14T04:05:14.237Z,99160.28
2022-12-14T04:07:42.163Z,99162.69
2022-12-14T04:10:29.375Z,99163.41
2022-12-14T04:13:19.552Z,99167.47
2022-12-14T04:16:05.508Z,99159.38
2022-12-14T04:18:59.288Z,99155.97
2022-12-14T04:21:42.627Z,99157.53
2022-12-14T04:24:35.652Z,99151.94
2022-12-14T04:27:05.667Z,99142.03
2022-12-14T04:29:51.894Z,99134.63
2022-12-14T04:32:24.168Z,99127.03
2022-12-14T04:34:54.036Z,99117.28
2022-12-14T04:37:21.596Z,99117.63
2022-12-14T04:39:59.186Z,99112.50
2022-12-14T04:42:28.343Z,99113.31
2022-12-14T04:44:56.857Z,99111.16
2022-12-14T04:47:26.328Z,99105.78
2022-12-14T04:49:55.592Z,99104.75
2022-12-14T04:52:33.455Z,99097.38
2022-12-14T04:55:16.188Z,99098.03
2022-12-14T04:57:46.416Z,99098.31
2022-12-14T05:00:14.245Z,99098.75
2022-12-14T05:03:00.028Z,99104.09
2022-12-14T05:05:27.646Z,99105.53
2022-12-14T05:08:02.926Z,99102.91
2022-12-14T05:10:32.671Z,99114.31
2022-12-14T05:13:05.056Z,99116.31
2022-12-14T05:15:39.911Z,99127.84
2022-12-14T05:18:07.236Z,99126.00
2022-12-14T05:20:34.624Z,99128.62
2022-12-14T05:23:01.868Z,99118.06
2022-12-14T05:25:29.041Z,99109.84
2022-12-14T05:27:56.561Z,99107.16
2022-12-14T05:30:23.923Z,99111.28
2022-12-14T05:32:51.379Z,99107.13
2022-12-14T05:35:19.376Z,99105.44
2022-12-14T05:37:46.568Z,99098.97
2022-12-14T05:40:16.755Z,99089.94
2022-12-14T05:42:46.050Z,99094.56
2022-12-14T05:45:15.911Z,99097.62
2022-12-14T05:47:43.357Z,99099.22
2022-12-14T05:50:10.569Z,99107.91
2022-12-14T05:52:37.697Z,99098.84
2022-12-14T05:55:05.453Z,99091.53
2022-12-14T05:57:32.667Z,99086.19
2022-12-14T06:00:00.291Z,99077.25
2022-12-14T06:02:27.861Z,99064.22
2022-12-14T06:04:55.475Z,99068.41
2022-12-14T06:07:27.491Z,99067.00
2022-12-14T06:09:56.734Z,99057.72
2022-12-14T06:12:23.978Z,99054.75
2022-12-14T06:14:51.166Z,99043.72
2022-12-14T06:17:18.744Z,99041.28
2022-12-14T06:19:49.606Z,99058.94
2022-12-14T06:22:17.712Z,99066.47
2022-12-14T06:24:45.174Z,99061.38
2022-12-14T06:27:12.445Z,99066.66
2022-12-14T06:29:39.615Z,99079.84
2022-12-14T06:32:07.054Z,99083.91
2022-12-14T06:34:38.704Z,99071.19
2022-12-14T06:37:07.444Z,99056.00
2022-12-14T06:39:34.600Z,99047.19
2022-12-14T06:42:01.778Z,99061.66
2022-12-14T06:44:29.319Z,99064.84
2022-12-14T06:46:56.540Z,99072.41
2022-12-14T06:49:23.781Z,99075.75
2022-12-14T06:51:51.262Z,99066.47
2022-12-14T06:54:18.835Z,99060.94
2022-12-14T06:56:46.627Z,99053.50
2022-12-14T06:59:14.508Z,99062.25
2022-12-14T07:01:42.381Z,99054.78
2022-12-14T07:04:09.808Z,99053.12
2022-12-14T07:06:38.218Z,99044.44
2022-12-14T07:09:06.133Z,99039.94
2022-12-14T07:11:33.464Z,99040.66
2022-12-14T07:14:03.201Z,99045.75
2022-12-14T07:16:30.572Z,99039.56
2022-12-14T07:18:57.769Z,99046.03
2022-12-14T07:21:25.338Z,99043.72
2022-12-14T07:23:52.677Z,99035.19
2022-12-14T07:26:21.380Z,99034.28
2022-12-14T07:28:48.908Z,99018.56
2022-12-14T07:31:23.268Z,99020.59
2022-12-14T07:33:58.688Z,99030.47
2022-12-14T07:36:26.439Z,99021.88
2022-12-14T07:38:55.754Z,99035.28
2022-12-14T07:41:24.103Z,99031.81
2022-12-14T07:43:51.670Z,99047.38
2022-12-14T07:46:23.040Z,99050.38
2022-12-14T07:48:50.989Z,99059.56
2022-12-14T07:51:19.526Z,99058.34
2022-12-14T07:53:46.877Z,99052.75
2022-12-14T07:56:14.826Z,99051.97
2022-12-14T07:58:42.271Z,99066.53
2022-12-14T08:01:11.340Z,99064.63
2022-12-14T08:03:39.784Z,99060.47
2022-12-14T08:06:07.395Z,99065.47
2022-12-14T08:08:34.626Z,99061.53
2022-12-14T08:11:02.322Z,99049.28
2022-12-14T08:13:29.743Z,99055.87
2022-12-14T08:15:57.273Z,99046.34
2022-12-14T08:18:24.895Z,99036.09
2022-12-14T08:20:53.441Z,99038.00
2022-12-14T08:23:21.439Z,99052.62
2022-12-14T08:25:52.856Z,99051.72
2022-12-14T08:28:20.083Z,99059.69
2022-12-14T08:30:47.257Z,99058.78
2022-12-14T08:33:14.906Z,99051.94
2022-12-14T08:35:42.132Z,99054.25
2022-12-14T08:38:09.420Z,99041.41
2022-12-14T08:40:37.384Z,99025.50
2022-12-14T08:43:04.989Z,99029.62
2022-12-14T08:45:32.425Z,99014.66
2022-12-14T08:48:00.207Z,99018.91
2022-12-14T08:50:27.849Z,99025.72
2022-12-14T08:52:55.269Z,99020.16
2022-12-14T08:55:28.233Z,99012.66
2022-12-14T08:57:58.209Z,99012.53
2022-12-14T09:00:25.831Z,99007.63
2022-12-14T09:02:54.257Z,99007.53
2022-12-14T09:05:21.634Z,99018.28
2022-12-14T09:07:49.100Z,99009.75
2022-12-14T09:10:16.232Z,99008.59
2022-12-14T09:12:43.428Z,99006.78
2022-12-14T09:15:11.019Z,99012.50
2022-12-14T09:17:38.259Z,99008.75
2022-12-14T09:20:05.797Z,99004.50
2022-12-14T09:22:33.386Z,99013.53
2022-12-14T09:25:00.573Z,99019.72
2022-12-14T09:27:28.533Z,99014.19
2022-12-14T09:29:56.035Z,98998.16
2022-12-14T09:32:23.288Z,98991.12
2022-12-14T09:34:50.600Z,98994.25
2022-12-14T09:37:18.086Z,98995.34
2022-12-14T09:39:45.579Z,98998.91
2022-12-14T09:42:50.823Z,98987.50
2022-12-14T09:45:34.206Z,98977.59
2022-12-14T09:48:01.486Z,98979.16
2022-12-14T09:50:28.944Z,98967.34
2022-12-14T09:53:00.137Z,98950.22
2022-12-14T09:55:34.892Z,98945.88
2022-12-14T09:58:06.430Z,98951.81
2022-12-14T10:00:34.707Z,98936.78
2022-12-14T10:03:11.417Z,98939.47
2022-12-14T10:05:42.230Z,98939.88
2022-12-14T10:08:21.428Z,98940.44
2022-12-14T10:11:07.582Z,98939.78
2022-12-14T10:13:44.155Z,98948.72
2022-12-14T10:16:30.258Z,98944.03
2022-12-14T10:19:10.115Z,98946.81
2022-12-14T10:21:43.984Z,98934.94
2022-12-14T10:24:31.689Z,98924.53
2022-12-14T10:26:58.861Z,98913.69
2022-12-14T10:29:30.072Z,98914.62
2022-12-14T10:32:09.320Z,98903.09
2022-12-14T10:34:39.437Z,98913.06
2022-12-14T10:37:13.969Z,98912.06
2022-12-14T10:39:49.331Z,98903.69
2022-12-14T10:42:20.105Z,98887.75
2022-12-14T10:45:38.931Z,98884.16
2022-12-14T10:48:04.795Z,98870.94
2022-12-14T10:50:35.596Z,98870.03
2022-12-14T10:53:02.915Z,98890.81
2022-12-14T10:55:31.193Z,98866.84
2022-12-14T10:57:58.654Z,98877.91
2022-12-14T11:00:25.954Z,98873.75
2022-12-14T11:02:57.145Z,98872.56
2022-12-14T11:05:24.663Z,98885.47
2022-12-14T11:07:51.794Z,98873.19
2022-12-14T11:10:26.474Z,98878.16
2022-12-14T11:13:05.098Z,98872.81
2022-12-14T11:15:34.342Z,98869.88
2022-12-14T11:18:03.205Z,98873.31
2022-12-14T11:20:30.603Z,98862.66
2022-12-14T11:23:00.294Z,98853.41
2022-12-14T11:25:30.889Z,98846.25
2022-12-14T11:27:58.453Z,98850.66
2022-12-14T11:30:25.678Z,98842.19
2022-12-14T11:32:53.225Z,98843.31
2022-12-14T11:35:20.591Z,98839.31
2022-12-14T11:37:50.874Z,98824.00
2022-12-14T11:40:23.091Z,98824.94
2022-12-14T11:42:50.746Z,98816.84
2022-12-14T11:45:24.265Z,98817.13
2022-12-14T11:48:10.285Z,98816.75
2022-12-14T11:50:37.776Z,98813.50
2022-12-14T11:53:11.012Z,98805.78
2022-12-14T11:55:40.598Z,98802.03
2022-12-14T11:58:12.566Z,98794.59
2022-12-14T12:00:47.606Z,98788.50
2022-12-14T12:03:16.299Z,98785.78
2022-12-14T12:05:44.000Z,98784.81
2022-12-14T12:08:24.130Z,98785.47
2022-12-14T12:10:52.298Z,98781.09
2022-12-14T12:13:25.626Z,98778.50
2022-12-14T12:15:57.106Z,98777.47
2022-12-14T12:18:27.780Z,98772.31
2022-12-14T12:20:59.693Z,98771.75
2022-12-14T12:23:50.350Z,98758.00
2022-12-14T12:26:18.781Z,98764.13
2022-12-14T12:28:48.062Z,98765.91
2022-12-14T12:31:17.872Z,98764.53
2022-12-14T12:33:55.820Z,98751.44
2022-12-14T12:36:24.288Z,98737.25
2022-12-14T12:39:01.625Z,98732.72
2022-12-14T12:41:34.970Z,98733.63
2022-12-14T12:44:10.168Z,98732.91
2022-12-14T12:47:15.012Z,98737.63
2022-12-14T12:49:32.822Z,98732.19
2022-12-14T12:52:01.119Z,98736.28
2022-12-14T12:54:32.481Z,98730.97
2022-12-14T12:57:00.006Z,98737.75
2022-12-14T12:59:33.567Z,98730.44
2022-12-14T13:02:02.645Z,98717.62
2022-12-14T13:04:33.795Z,98724.09
2022-12-14T13:07:01.271Z,98722.50
2022-12-14T13:09:42.228Z,98718.22
2022-12-14T13:12:22.229Z,98717.19
2022-12-14T13:14:50.261Z,98710.66
2022-12-14T13:17:29.070Z,98714.59
2022-12-14T13:19:56.958Z,98707.09
2022-12-14T13:22:31.552Z,98711.78
2022-12-14T13:25:00.322Z,98711.41
2022-12-14T13:27:32.207Z,98698.41
2022-12-14T13:30:02.358Z,98695.16
2022-12-14T13:32:45.303Z,98684.44
2022-12-14T13:35:32.855Z,98691.63
2022-12-14T13:38:09.537Z,98685.75
2022-12-14T13:40:56.197Z,98675.94
2022-12-14T13:43:27.489Z,98684.34
2022-12-14T13:45:54.842Z,98671.56
2022-12-14T13:48:23.426Z,98668.44
2022-12-14T13:51:01.414Z,98658.91
2022-12-14T13:53:36.577Z,98663.81
2022-12-14T13:56:04.637Z,98648.56
2022-12-14T13:58:41.265Z,98648.22
2022-12-14T14:01:13.979Z,98638.13
2022-12-14T14:03:41.609Z,98636.53
2022-12-14T14:06:09.714Z,98643.75
2022-12-14T14:08:41.786Z,98649.53
2022-12-14T14:11:36.296Z,98649.12
2022-12-14T14:14:30.838Z,98661.22
2022-12-14T14:16:59.493Z,98653.56
2022-12-14T14:19:27.135Z,98658.19
2022-12-14T14:22:26.092Z,98645.31
2022-12-14T14:24:55.633Z,98645.72
2022-12-14T14:27:24.124Z,98644.87
2022-12-14T14:29:51.754Z,98635.84
2022-12-14T14:32:37.959Z,98634.44
2022-12-14T14:35:25.460Z,98629.84
2022-12-14T14:38:00.279Z,98626.03
2022-12-14T14:40:50.970Z,98632.19
2022-12-14T14:43:25.360Z,98625.81
2022-12-14T14:45:53.387Z,98622.72
2022-12-14T14:48:20.966Z,98626.94
2022-12-14T14:50:49.687Z,98625.62
2022-12-14T14:53:33.099Z,98626.97
2022-12-14T14:56:01.891Z,98624.53
2022-12-14T14:58:39.264Z,98625.12
2022-12-14T15:01:06.889Z,98624.00
2022-12-14T15:03:40.317Z,98630.25
2022-12-14T15:06:14.751Z,98630.09
2022-12-14T15:08:44.084Z,98621.66
2022-12-14T15:11:19.190Z,98627.28
2022-12-14T15:13:54.491Z,98628.72
2022-12-14T15:16:28.612Z,98635.94
2022-12-14T15:18:56.198Z,98636.63
2022-12-14T15:21:23.995Z,98637.88
2022-12-14T15:23:54.231Z,98643.63
2022-12-14T15:26:23.299Z,98651.09
2022-12-14T15:28:58.106Z,98638.88
2022-12-14T15:31:29.394Z,98626.25
2022-12-14T15:33:57.059Z,98620.91
2022-12-14T15:36:26.240Z,98619.66
2022-12-14T15:38:54.272Z,98620.41
2022-12-14T15:41:25.693Z,98615.06
2022-12-14T15:43:59.673Z,98626.53
2022-12-14T15:46:31.287Z,98622.19
2022-12-14T15:49:03.811Z,98634.88
2022-12-14T15:51:32.434Z,98617.97
2022-12-14T15:54:02.641Z,98617.66
2022-12-14T15:56:29.856Z,98633.69
2022-12-14T15:59:01.507Z,98625.41
2022-12-14T16:01:28.909Z,98626.84
2022-12-14T16:03:57.049Z,98616.81
2022-12-14T16:06:24.521Z,98614.66
2022-12-14T16:08:52.930Z,98610.22
2022-12-14T16:11:24.908Z,98604.16
2022-12-14T16:13:52.102Z,98599.19
2022-12-14T16:16:19.339Z,98579.38
2022-12-14T16:18:50.762Z,98582.47
2022-12-14T16:21:26.156Z,98591.69
2022-12-14T16:23:53.775Z,98585.94
2022-12-14T16:26:22.186Z,98573.13
2022-12-14T16:28:49.834Z,98568.22
2022-12-14T16:31:18.339Z,98554.47
2022-12-14T16:33:45.582Z,98542.28
2022-12-14T16:36:20.697Z,98547.34
2022-12-14T16:39:17.880Z,98547.25
2022-12-14T16:41:50.767Z,98535.50
2022-12-14T16:44:22.232Z,98530.69
2022-12-14T16:47:05.065Z,98542.28
2022-12-14T16:49:33.193Z,98549.56
2022-12-14T16:52:08.017Z,98545.41
2022-12-14T16:54:36.399Z,98547.25
2022-12-14T16:57:16.209Z,98537.31
2022-12-14T16:59:44.480Z,98536.88
2022-12-14T17:02:32.045Z,98544.41
2022-12-14T17:05:03.665Z,98539.78
2022-12-14T17:07:31.633Z,98532.72
2022-12-14T17:09:59.159Z,98530.09
2022-12-14T17:12:26.651Z,98541.06
2022-12-14T17:14:54.164Z,98546.19
2022-12-14T17:17:22.605Z,98550.50
2022-12-14T17:19:50.041Z,98530.87
2022-12-14T17:22:18.793Z,98534.31
2022-12-14T17:24:46.038Z,98543.94
2022-12-14T17:27:16.000Z,98549.44
2022-12-14T17:29:43.738Z,98547.00
2022-12-14T17:32:12.064Z,98551.09
2022-12-14T17:34:39.368Z,98557.56
2022-12-14T17:37:16.879Z,98561.91
2022-12-14T17:39:44.080Z,98556.72
2022-12-14T17:42:11.804Z,98562.78
2022-12-14T17:44:42.360Z,98571.53
2022-12-14T17:47:15.716Z,98574.44
2022-12-14T17:49:43.374Z,98566.00
2022-12-14T17:52:17.655Z,98557.50
2022-12-14T17:54:45.417Z,98550.78
2022-12-14T17:57:16.496Z,98546.91
2022-12-14T17:59:47.481Z,98544.34
2022-12-14T18:02:24.267Z,98544.69
2022-12-14T18:04:52.081Z,98537.50
2022-12-14T18:07:19.656Z,98537.84
2022-12-14T18:09:47.956Z,98529.69
2022-12-14T18:12:24.489Z,98533.34
2022-12-14T18:14:52.609Z,98526.12
2022-12-14T18:17:20.182Z,98529.34
2022-12-14T18:19:47.926Z,98520.22
2022-12-14T18:22:16.941Z,98527.69
2022-12-14T18:24:47.428Z,98528.41
2022-12-14T18:27:14.956Z,98518.12
2022-12-14T18:29:42.737Z,98516.75
2022-12-14T18:32:13.193Z,98513.00
2022-12-14T18:34:40.381Z,98513.75
2022-12-14T18:37:08.533Z,98516.97
2022-12-14T18:39:36.091Z,98507.59
2022-12-14T18:42:03.264Z,98503.28
2022-12-14T18:44:30.632Z,98504.31
2022-12-14T18:47:14.634Z,98491.31
2022-12-14T18:49:45.299Z,98488.94
2022-12-14T18:52:13.142Z,98492.44
2022-12-14T18:54:40.317Z,98493.09
2022-12-14T18:57:07.551Z,98488.44
2022-12-14T18:59:40.620Z,98498.59
2022-12-14T19:02:13.477Z,98497.44
2022-12-14T19:04:41.063Z,98486.81
2022-12-14T19:07:08.408Z,98493.31
2022-12-14T19:09:35.609Z,98497.47
2022-12-14T19:12:03.283Z,98495.03
2022-12-14T19:14:31.122Z,98499.31
2022-12-14T19:16:58.542Z,98493.53
2022-12-14T19:19:33.423Z,98487.62
2022-12-14T19:22:05.364Z,98477.00
2022-12-14T19:24:32.953Z,98486.06
2022-12-14T19:27:00.867Z,98483.66
2022-12-14T19:29:28.052Z,98489.16
2022-12-14T19:31:59.108Z,98495.94
2022-12-14T19:34:31.011Z,98491.69
2022-12-14T19:36:58.544Z,98488.59
2022-12-14T19:39:25.846Z,98490.72
2022-12-14T19:41:54.238Z,98492.22
2022-12-14T19:44:21.770Z,98491.06
2022-12-14T19:46:49.251Z,98477.97
2022-12-14T19:49:17.041Z,98475.06
2022-12-14T19:51:44.822Z,98465.19
2022-12-14T19:54:12.287Z,98465.00
2022-12-14T19:56:39.512Z,98464.09
2022-12-14T19:59:07.277Z,98476.25
2022-12-14T20:01:40.721Z,98457.62
2022-12-14T20:04:11.254Z,98458.53
2022-12-14T20:06:38.623Z,98456.72
2022-12-14T20:09:06.160Z,98452.13
2022-12-14T20:11:33.838Z,98450.81
2022-12-14T20:14:03.230Z,98447.94
2022-12-14T20:16:30.672Z,98440.16
2022-12-14T20:18:58.467Z,98445.34
2022-12-14T20:21:29.304Z,98447.94
2022-12-14T20:23:57.560Z,98454.50
2022-12-14T20:26:25.430Z,98432.72
2022-12-14T20:28:53.692Z,98432.13
2022-12-14T20:31:22.373Z,98429.41
2022-12-14T20:33:50.266Z,98435.34
2022-12-14T20:36:18.847Z,98438.47
2022-12-14T20:38:46.420Z,98428.19
2022-12-14T20:41:17.607Z,98419.84
2022-12-14T20:43:45.236Z,98428.25
2022-12-14T20:46:33.203Z,98423.91
2022-12-14T20:49:02.273Z,98417.81
2022-12-14T20:51:30.288Z,98424.72
2022-12-14T20:53:57.564Z,98429.47
2022-12-14T20:56:25.459Z,98425.06
2022-12-14T20:58:53.303Z,98420.47
2022-12-14T21:01:20.796Z,98431.97
2022-12-14T21:03:49.096Z,98431.09
2022-12-14T21:06:17.438Z,98430.81
2022-12-14T21:09:03.863Z,98436.69
2022-12-14T21:11:53.560Z,98426.59
2022-12-14T21:14:21.186Z,98418.34
2022-12-14T21:16:48.921Z,98416.06
2022-12-14T21:19:18.964Z,98414.16
2022-12-14T21:21:51.671Z,98421.94
2022-12-14T21:24:52.620Z,98428.09
2022-12-14T21:27:09.758Z,98426.50
2022-12-14T21:29:37.200Z,98411.28
2022-12-14T21:32:04.633Z,98420.09
2022-12-14T21:34:32.076Z,98431.91
2022-12-14T21:36:59.467Z,98424.22
2022-12-14T21:39:26.842Z,98435.34
2022-12-14T21:42:12.725Z,98436.34
2022-12-14T21:44:40.915Z,98445.66
2022-12-14T21:47:10.287Z,98449.47
2022-12-14T21:49:38.303Z,98447.66
2022-12-14T21:52:07.719Z,98445.69
2022-12-14T21:54:35.165Z,98445.13
2022-12-14T21:57:20.796Z,98448.63
2022-12-14T21:59:48.202Z,98441.62
2022-12-14T22:02:15.554Z,98427.81
2022-12-14T22:04:49.132Z,98429.66
2022-12-14T22:07:17.170Z,98434.47
2022-12-14T22:09:44.789Z,98441.34
2022-12-14T22:12:17.657Z,98454.09
2022-12-14T22:14:45.118Z,98463.38
2022-12-14T22:17:13.027Z,98470.84
2022-12-14T22:19:40.300Z,98471.06
2022-12-14T22:22:07.735Z,98474.25
2022-12-14T22:24:34.910Z,98477.81
2022-12-14T22:27:02.090Z,98482.00
2022-12-14T22:29:29.769Z,98479.31
2022-12-14T22:31:57.542Z,98484.59
2022-12-14T22:34:24.869Z,98491.16
2022-12-14T22:36:52.592Z,98491.41
2022-12-14T22:39:19.836Z,98498.78
2022-12-14T22:41:47.016Z,98492.72
2022-12-14T22:44:14.458Z,98481.38
2022-12-14T22:46:41.628Z,98479.88
2022-12-14T22:49:08.913Z,98485.88
2022-12-14T22:51:36.316Z,98472.59
2022-12-14T22:54:03.487Z,98469.66
2022-12-14T22:56:41.705Z,98462.44
2022-12-14T22:59:10.881Z,98469.47
2022-12-14T23:01:38.159Z,98481.69
2022-12-14T23:04:06.230Z,98471.59
2022-12-14T23:06:33.819Z,98473.12
2022-12-14T23:09:19.732Z,98473.31
2022-12-14T23:12:08.846Z,98464.09
2022-12-14T23:14:57.656Z,98463.88
2022-12-14T23:17:43.915Z,98477.19
2022-12-14T23:20:29.943Z,98475.81
2022-12-14T23:23:16.217Z,98483.69
2022-12-14T23:26:02.003Z,98479.56
2022-12-14T23:28:50.034Z,98491.87
2022-12-14T23:31:35.905Z,98484.31
2022-12-14T23:34:21.886Z,98485.75
2022-12-14T23:37:07.738Z,98481.34
2022-12-14T23:39:53.963Z,98486.41
2022-12-14T23:42:40.163Z,98493.78
2022-12-14T23:45:26.310Z,98493.00
2022-12-14T23:48:14.601Z,98496.78
2022-12-14T23:51:01.146Z,98489.31
2022-12-14T23:53:49.834Z,98489.81
2022-12-14T23:56:36.499Z,98499.22
2022-12-14T23:59:26.375Z,98504.53
